sensor_id;sensor_type;location;lat;lon;timestamp;P1;durP1;ratioP1;P2;durP2;ratioP2
11037;SDS011;5572;49.540;11.932;2023-06-24T00:01:04;11.67;;;10.70;;
11037;SDS011;5572;49.540;11.932;2023-06-24T00:03:31;11.70;;;10.73;;
11037;SDS011;5572;49.540;11.932;2023-06-24T00:06:02;10.53;;;9.63;;
11037;SDS011;5572;49.540;11.932;2023-06-24T00:08:30;12.93;;;11.90;;
11037;SDS011;5572;49.540;11.932;2023-06-24T00:10:59;12.30;;;11.30;;
11037;SDS011;5572;49.540;11.932;2023-06-24T00:13:26;12.13;;;11.13;;
11037;SDS011;5572;49.540;11.932;2023-06-24T00:15:53;10.80;;;9.90;;
11037;SDS011;5572;49.540;11.932;2023-06-24T00:18:20;12.17;;;11.13;;
11037;SDS011;5572;49.540;11.932;2023-06-24T00:20:49;11.80;;;10.80;;
11037;SDS011;5572;49.540;11.932;2023-06-24T00:23:16;11.43;;;10.47;;
11037;SDS011;5572;49.540;11.932;2023-06-24T00:25:47;13.30;;;12.23;;
11037;SDS011;5572;49.540;11.932;2023-06-24T00:28:13;14.00;;;12.83;;
11037;SDS011;5572;49.540;11.932;2023-06-24T00:30:40;11.90;;;10.90;;
11037;SDS011;5572;49.540;11.932;2023-06-24T00:33:06;12.13;;;11.13;;
11037;SDS011;5572;49.540;11.932;2023-06-24T00:35:36;12.10;;;11.13;;
11037;SDS011;5572;49.540;11.932;2023-06-24T00:38:03;12.20;;;11.20;;
11037;SDS011;5572;49.540;11.932;2023-06-24T00:40:29;12.30;;;11.30;;
11037;SDS011;5572;49.540;11.932;2023-06-24T00:42:57;11.93;;;10.87;;
11037;SDS011;5572;49.540;11.932;2023-06-24T00:45:24;13.13;;;12.07;;
11037;SDS011;5572;49.540;11.932;2023-06-24T00:47:51;12.50;;;11.47;;
11037;SDS011;5572;49.540;11.932;2023-06-24T00:50:19;12.33;;;11.33;;
11037;SDS011;5572;49.540;11.932;2023-06-24T00:52:46;13.10;;;12.03;;
11037;SDS011;5572;49.540;11.932;2023-06-24T00:55:14;11.73;;;10.77;;
11037;SDS011;5572;49.540;11.932;2023-06-24T00:57:42;12.73;;;11.70;;
11037;SDS011;5572;49.540;11.932;2023-06-24T01:00:11;12.50;;;11.50;;
11037;SDS011;5572;49.540;11.932;2023-06-24T01:02:42;12.30;;;11.30;;
11037;SDS011;5572;49.540;11.932;2023-06-24T01:05:09;11.83;;;10.87;;
11037;SDS011;5572;49.540;11.932;2023-06-24T01:07:37;12.93;;;11.87;;
11037;SDS011;5572;49.540;11.932;2023-06-24T01:10:04;12.07;;;11.07;;
11037;SDS011;5572;49.540;11.932;2023-06-24T01:12:32;13.77;;;12.63;;
11037;SDS011;5572;49.540;11.932;2023-06-24T01:15:00;11.83;;;10.87;;
11037;SDS011;5572;49.540;11.932;2023-06-24T01:17:29;16.33;;;14.97;;
11037;SDS011;5572;49.540;11.932;2023-06-24T01:20:02;12.47;;;11.40;;
11037;SDS011;5572;49.540;11.932;2023-06-24T01:22:54;13.30;;;12.20;;
11037;SDS011;5572;49.540;11.932;2023-06-24T01:25:49;12.43;;;11.43;;
11037;SDS011;5572;49.540;11.932;2023-06-24T01:31:49;12.03;;;11.03;;
11037;SDS011;5572;49.540;11.932;2023-06-24T01:34:22;11.10;;;10.17;;
11037;SDS011;5572;49.540;11.932;2023-06-24T01:36:55;12.87;;;11.80;;
11037;SDS011;5572;49.540;11.932;2023-06-24T01:39:28;12.73;;;11.67;;
11037;SDS011;5572;49.540;11.932;2023-06-24T01:42:03;13.60;;;12.47;;
11037;SDS011;5572;49.540;11.932;2023-06-24T01:44:34;12.80;;;11.73;;
11037;SDS011;5572;49.540;11.932;2023-06-24T01:47:02;11.50;;;10.47;;
11037;SDS011;5572;49.540;11.932;2023-06-24T01:49:33;12.23;;;11.20;;
11037;SDS011;5572;49.540;11.932;2023-06-24T01:52:04;12.03;;;11.03;;
11037;SDS011;5572;49.540;11.932;2023-06-24T01:54:34;13.30;;;12.23;;
11037;SDS011;5572;49.540;11.932;2023-06-24T01:57:03;13.27;;;12.03;;
11037;SDS011;5572;49.540;11.932;2023-06-24T01:59:31;19.43;;;17.73;;
11037;SDS011;5572;49.540;11.932;2023-06-24T02:01:59;12.20;;;11.13;;
11037;SDS011;5572;49.540;11.932;2023-06-24T02:04:29;13.13;;;12.07;;
11037;SDS011;5572;49.540;11.932;2023-06-24T02:06:58;12.80;;;11.73;;
11037;SDS011;5572;49.540;11.932;2023-06-24T02:09:27;11.90;;;10.90;;
11037;SDS011;5572;49.540;11.932;2023-06-24T02:11:55;12.97;;;11.90;;
11037;SDS011;5572;49.540;11.932;2023-06-24T02:14:24;11.10;;;10.17;;
11037;SDS011;5572;49.540;11.932;2023-06-24T02:16:52;12.43;;;11.43;;
11037;SDS011;5572;49.540;11.932;2023-06-24T02:19:22;11.80;;;10.80;;
11037;SDS011;5572;49.540;11.932;2023-06-24T02:21:53;12.00;;;10.97;;
11037;SDS011;5572;49.540;11.932;2023-06-24T02:24:22;12.03;;;11.03;;
11037;SDS011;5572;49.540;11.932;2023-06-24T02:26:50;12.57;;;11.50;;
11037;SDS011;5572;49.540;11.932;2023-06-24T02:29:17;11.90;;;10.90;;
11037;SDS011;5572;49.540;11.932;2023-06-24T02:31:45;11.03;;;10.07;;
11037;SDS011;5572;49.540;11.932;2023-06-24T02:34:11;10.83;;;9.90;;
11037;SDS011;5572;49.540;11.932;2023-06-24T02:36:38;12.53;;;11.47;;
11037;SDS011;5572;49.540;11.932;2023-06-24T02:39:07;12.60;;;11.53;;
11037;SDS011;5572;49.540;11.932;2023-06-24T02:41:33;12.83;;;11.77;;
11037;SDS011;5572;49.540;11.932;2023-06-24T02:44:01;14.00;;;12.67;;
11037;SDS011;5572;49.540;11.932;2023-06-24T02:46:27;12.40;;;11.40;;
11037;SDS011;5572;49.540;11.932;2023-06-24T02:48:55;12.57;;;11.53;;
11037;SDS011;5572;49.540;11.932;2023-06-24T02:51:24;38.80;;;35.57;;
11037;SDS011;5572;49.540;11.932;2023-06-24T02:53:52;12.47;;;11.43;;
11037;SDS011;5572;49.540;11.932;2023-06-24T02:56:20;13.67;;;12.53;;
11037;SDS011;5572;49.540;11.932;2023-06-24T02:58:47;12.57;;;11.50;;
11037;SDS011;5572;49.540;11.932;2023-06-24T03:01:14;12.13;;;11.10;;
11037;SDS011;5572;49.540;11.932;2023-06-24T03:03:42;12.43;;;11.33;;
11037;SDS011;5572;49.540;11.932;2023-06-24T03:06:14;11.57;;;10.60;;
11037;SDS011;5572;49.540;11.932;2023-06-24T03:08:42;12.33;;;11.30;;
11037;SDS011;5572;49.540;11.932;2023-06-24T03:11:11;13.83;;;12.70;;
11037;SDS011;5572;49.540;11.932;2023-06-24T03:13:40;12.50;;;11.43;;
11037;SDS011;5572;49.540;11.932;2023-06-24T03:16:07;13.23;;;12.07;;
11037;SDS011;5572;49.540;11.932;2023-06-24T03:18:37;12.37;;;11.27;;
11037;SDS011;5572;49.540;11.932;2023-06-24T03:21:04;11.90;;;10.90;;
11037;SDS011;5572;49.540;11.932;2023-06-24T03:23:30;12.13;;;11.13;;
11037;SDS011;5572;49.540;11.932;2023-06-24T03:25:57;11.53;;;10.53;;
11037;SDS011;5572;49.540;11.932;2023-06-24T03:28:23;17.47;;;16.07;;
11037;SDS011;5572;49.540;11.932;2023-06-24T03:30:51;13.13;;;12.07;;
11037;SDS011;5572;49.540;11.932;2023-06-24T03:33:18;12.57;;;11.47;;
11037;SDS011;5572;49.540;11.932;2023-06-24T03:35:44;12.30;;;11.23;;
11037;SDS011;5572;49.540;11.932;2023-06-24T03:38:11;13.30;;;12.17;;
11037;SDS011;5572;49.540;11.932;2023-06-24T03:40:38;13.00;;;11.87;;
11037;SDS011;5572;49.540;11.932;2023-06-24T03:43:04;14.17;;;12.93;;
11037;SDS011;5572;49.540;11.932;2023-06-24T03:45:31;14.40;;;13.17;;
11037;SDS011;5572;49.540;11.932;2023-06-24T03:47:58;14.07;;;12.90;;
11037;SDS011;5572;49.540;11.932;2023-06-24T03:50:25;14.10;;;12.90;;
11037;SDS011;5572;49.540;11.932;2023-06-24T03:52:51;13.73;;;12.57;;
11037;SDS011;5572;49.540;11.932;2023-06-24T03:55:18;13.90;;;12.73;;
11037;SDS011;5572;49.540;11.932;2023-06-24T03:57:45;14.63;;;13.47;;
11037;SDS011;5572;49.540;11.932;2023-06-24T04:00:11;14.37;;;13.13;;
11037;SDS011;5572;49.540;11.932;2023-06-24T04:02:41;13.87;;;12.70;;
11037;SDS011;5572;49.540;11.932;2023-06-24T04:05:09;16.33;;;14.97;;
11037;SDS011;5572;49.540;11.932;2023-06-24T04:07:36;15.57;;;14.23;;
11037;SDS011;5572;49.540;11.932;2023-06-24T04:10:03;14.90;;;13.63;;
11037;SDS011;5572;49.540;11.932;2023-06-24T04:12:33;13.40;;;12.27;;
11037;SDS011;5572;49.540;11.932;2023-06-24T04:15:00;13.63;;;12.47;;
11037;SDS011;5572;49.540;11.932;2023-06-24T04:17:28;14.23;;;13.03;;
11037;SDS011;5572;49.540;11.932;2023-06-24T04:19:54;14.80;;;13.53;;
11037;SDS011;5572;49.540;11.932;2023-06-24T04:22:22;14.20;;;13.00;;
11037;SDS011;5572;49.540;11.932;2023-06-24T04:24:49;13.50;;;12.37;;
11037;SDS011;5572;49.540;11.932;2023-06-24T04:27:15;13.17;;;12.03;;
11037;SDS011;5572;49.540;11.932;2023-06-24T04:29:42;12.53;;;11.43;;
11037;SDS011;5572;49.540;11.932;2023-06-24T04:32:09;13.83;;;12.67;;
11037;SDS011;5572;49.540;11.932;2023-06-24T04:34:35;14.13;;;12.93;;
11037;SDS011;5572;49.540;11.932;2023-06-24T04:37:02;14.47;;;13.23;;
11037;SDS011;5572;49.540;11.932;2023-06-24T04:39:30;14.47;;;13.23;;
11037;SDS011;5572;49.540;11.932;2023-06-24T04:41:57;14.27;;;13.13;;
11037;SDS011;5572;49.540;11.932;2023-06-24T04:44:23;14.47;;;13.27;;
11037;SDS011;5572;49.540;11.932;2023-06-24T04:46:50;13.53;;;12.40;;
11037;SDS011;5572;49.540;11.932;2023-06-24T04:49:17;14.33;;;13.17;;
11037;SDS011;5572;49.540;11.932;2023-06-24T04:51:44;14.40;;;13.20;;
11037;SDS011;5572;49.540;11.932;2023-06-24T04:54:10;14.53;;;13.33;;
11037;SDS011;5572;49.540;11.932;2023-06-24T04:56:39;14.77;;;13.50;;
11037;SDS011;5572;49.540;11.932;2023-06-24T04:59:06;14.90;;;13.67;;
11037;SDS011;5572;49.540;11.932;2023-06-24T05:01:33;14.53;;;13.33;;
11037;SDS011;5572;49.540;11.932;2023-06-24T05:03:59;15.17;;;13.93;;
11037;SDS011;5572;49.540;11.932;2023-06-24T05:06:26;16.23;;;14.97;;
11037;SDS011;5572;49.540;11.932;2023-06-24T05:08:52;16.37;;;15.07;;
11037;SDS011;5572;49.540;11.932;2023-06-24T05:11:19;16.60;;;15.43;;
11037;SDS011;5572;49.540;11.932;2023-06-24T05:13:47;16.60;;;15.43;;
11037;SDS011;5572;49.540;11.932;2023-06-24T05:16:13;17.43;;;16.27;;
11037;SDS011;5572;49.540;11.932;2023-06-24T05:18:41;17.97;;;16.70;;
11037;SDS011;5572;49.540;11.932;2023-06-24T05:21:08;16.13;;;15.00;;
11037;SDS011;5572;49.540;11.932;2023-06-24T05:23:35;15.77;;;14.67;;
11037;SDS011;5572;49.540;11.932;2023-06-24T05:26:01;16.63;;;15.47;;
11037;SDS011;5572;49.540;11.932;2023-06-24T05:28:28;18.90;;;17.53;;
11037;SDS011;5572;49.540;11.932;2023-06-24T05:30:56;17.13;;;15.80;;
11037;SDS011;5572;49.540;11.932;2023-06-24T05:33:23;17.73;;;16.40;;
11037;SDS011;5572;49.540;11.932;2023-06-24T05:35:49;17.63;;;16.30;;
11037;SDS011;5572;49.540;11.932;2023-06-24T05:38:16;20.43;;;18.90;;
11037;SDS011;5572;49.540;11.932;2023-06-24T05:40:42;18.83;;;17.47;;
11037;SDS011;5572;49.540;11.932;2023-06-24T05:43:09;18.33;;;16.40;;
11037;SDS011;5572;49.540;11.932;2023-06-24T05:45:36;17.27;;;15.93;;
11037;SDS011;5572;49.540;11.932;2023-06-24T05:48:04;18.07;;;16.73;;
11037;SDS011;5572;49.540;11.932;2023-06-24T05:50:31;19.07;;;17.63;;
11037;SDS011;5572;49.540;11.932;2023-06-24T05:52:57;19.63;;;18.20;;
11037;SDS011;5572;49.540;11.932;2023-06-24T05:55:24;18.87;;;17.43;;
11037;SDS011;5572;49.540;11.932;2023-06-24T05:57:50;19.23;;;17.80;;
11037;SDS011;5572;49.540;11.932;2023-06-24T06:00:17;19.03;;;17.60;;
11037;SDS011;5572;49.540;11.932;2023-06-24T06:02:44;19.23;;;17.80;;
11037;SDS011;5572;49.540;11.932;2023-06-24T06:05:12;19.70;;;18.23;;
11037;SDS011;5572;49.540;11.932;2023-06-24T06:07:39;20.20;;;18.67;;
11037;SDS011;5572;49.540;11.932;2023-06-24T06:10:06;19.90;;;18.43;;
11037;SDS011;5572;49.540;11.932;2023-06-24T06:12:33;21.63;;;20.00;;
11037;SDS011;5572;49.540;11.932;2023-06-24T06:15:00;269.93;;;97.43;;
11037;SDS011;5572;49.540;11.932;2023-06-24T06:17:26;26.47;;;18.87;;
11037;SDS011;5572;49.540;11.932;2023-06-24T06:19:53;17.30;;;16.07;;
11037;SDS011;5572;49.540;11.932;2023-06-24T06:22:21;16.90;;;15.63;;
11037;SDS011;5572;49.540;11.932;2023-06-24T06:24:47;254.90;;;85.83;;
11037;SDS011;5572;49.540;11.932;2023-06-24T06:27:14;163.23;;;61.47;;
11037;SDS011;5572;49.540;11.932;2023-06-24T06:29:40;159.83;;;59.50;;
11037;SDS011;5572;49.540;11.932;2023-06-24T06:32:07;161.47;;;66.57;;
11037;SDS011;5572;49.540;11.932;2023-06-24T06:34:34;257.67;;;97.43;;
11037;SDS011;5572;49.540;11.932;2023-06-24T06:37:00;157.10;;;63.67;;
11037;SDS011;5572;49.540;11.932;2023-06-24T06:39:28;273.97;;;111.67;;
11037;SDS011;5572;49.540;11.932;2023-06-24T06:41:54;259.87;;;100.10;;
11037;SDS011;5572;49.540;11.932;2023-06-24T06:44:21;159.17;;;63.60;;
11037;SDS011;5572;49.540;11.932;2023-06-24T06:46:47;279.70;;;108.07;;
11037;SDS011;5572;49.540;11.932;2023-06-24T06:49:14;19.57;;;17.27;;
11037;SDS011;5572;49.540;11.932;2023-06-24T06:51:40;274.97;;;99.13;;
11037;SDS011;5572;49.540;11.932;2023-06-24T06:54:07;19.43;;;18.00;;
11037;SDS011;5572;49.540;11.932;2023-06-24T06:56:34;256.83;;;99.90;;
11037;SDS011;5572;49.540;11.932;2023-06-24T06:59:01;156.77;;;68.03;;
11037;SDS011;5572;49.540;11.932;2023-06-24T07:01:27;260.67;;;107.87;;
11037;SDS011;5572;49.540;11.932;2023-06-24T07:03:54;155.47;;;67.63;;
11037;SDS011;5572;49.540;11.932;2023-06-24T07:06:20;156.43;;;68.20;;
11037;SDS011;5572;49.540;11.932;2023-06-24T07:08:47;20.03;;;18.50;;
11037;SDS011;5572;49.540;11.932;2023-06-24T07:11:13;257.90;;;108.47;;
11037;SDS011;5572;49.540;11.932;2023-06-24T07:13:41;157.80;;;70.50;;
11037;SDS011;5572;49.540;11.932;2023-06-24T07:16:08;258.90;;;113.83;;
11037;SDS011;5572;49.540;11.932;2023-06-24T07:18:34;264.10;;;121.53;;
11037;SDS011;5572;49.540;11.932;2023-06-24T07:21:01;137.87;;;65.30;;
11037;SDS011;5572;49.540;11.932;2023-06-24T07:23:28;280.03;;;128.93;;
11037;SDS011;5572;49.540;11.932;2023-06-24T07:25:55;22.03;;;20.07;;
11037;SDS011;5572;49.540;11.932;2023-06-24T07:28:21;259.77;;;113.73;;
11037;SDS011;5572;49.540;11.932;2023-06-24T07:30:49;156.53;;;69.87;;
11037;SDS011;5572;49.540;11.932;2023-06-24T07:33:16;154.33;;;66.80;;
11037;SDS011;5572;49.540;11.932;2023-06-24T07:35:42;275.33;;;116.37;;
11037;SDS011;5572;49.540;11.932;2023-06-24T07:38:09;274.40;;;119.10;;
11037;SDS011;5572;49.540;11.932;2023-06-24T07:40:35;274.17;;;123.60;;
11037;SDS011;5572;49.540;11.932;2023-06-24T07:43:02;141.20;;;64.67;;
11037;SDS011;5572;49.540;11.932;2023-06-24T07:45:28;258.20;;;111.73;;
11037;SDS011;5572;49.540;11.932;2023-06-24T07:47:56;155.57;;;70.47;;
11037;SDS011;5572;49.540;11.932;2023-06-24T07:50:23;33.03;;;21.47;;
11037;SDS011;5572;49.540;11.932;2023-06-24T07:52:50;276.17;;;123.20;;
11037;SDS011;5572;49.540;11.932;2023-06-24T07:55:16;41.03;;;23.07;;
11037;SDS011;5572;49.540;11.932;2023-06-24T07:57:44;138.50;;;63.70;;
11037;SDS011;5572;49.540;11.932;2023-06-24T08:00:11;153.73;;;68.83;;
11037;SDS011;5572;49.540;11.932;2023-06-24T08:02:40;135.87;;;65.00;;
11037;SDS011;5572;49.540;11.932;2023-06-24T08:05:08;155.33;;;73.33;;
11037;SDS011;5572;49.540;11.932;2023-06-24T08:07:35;274.17;;;129.60;;
11037;SDS011;5572;49.540;11.932;2023-06-24T08:10:02;271.90;;;130.57;;
11037;SDS011;5572;49.540;11.932;2023-06-24T08:12:29;21.63;;;20.03;;
11037;SDS011;5572;49.540;11.932;2023-06-24T08:14:55;256.83;;;120.70;;
11037;SDS011;5572;49.540;11.932;2023-06-24T08:17:22;136.87;;;66.03;;
11037;SDS011;5572;49.540;11.932;2023-06-24T08:19:48;148.00;;;73.90;;
11037;SDS011;5572;49.540;11.932;2023-06-24T08:22:16;272.27;;;134.83;;
11037;SDS011;5572;49.540;11.932;2023-06-24T08:24:43;275.23;;;130.70;;
11037;SDS011;5572;49.540;11.932;2023-06-24T08:27:09;19.70;;;18.43;;
11037;SDS011;5572;49.540;11.932;2023-06-24T08:29:36;21.67;;;20.20;;
11037;SDS011;5572;49.540;11.932;2023-06-24T08:32:03;22.37;;;20.83;;
11037;SDS011;5572;49.540;11.932;2023-06-24T08:34:32;20.83;;;19.43;;
11037;SDS011;5572;49.540;11.932;2023-06-24T08:36:59;21.00;;;19.63;;
11037;SDS011;5572;49.540;11.932;2023-06-24T08:39:27;22.27;;;20.57;;
11037;SDS011;5572;49.540;11.932;2023-06-24T08:41:53;21.80;;;20.20;;
11037;SDS011;5572;49.540;11.932;2023-06-24T08:44:20;20.30;;;19.00;;
11037;SDS011;5572;49.540;11.932;2023-06-24T08:46:46;22.40;;;20.90;;
11037;SDS011;5572;49.540;11.932;2023-06-24T08:49:21;21.30;;;19.87;;
11037;SDS011;5572;49.540;11.932;2023-06-24T08:51:54;21.83;;;20.27;;
11037;SDS011;5572;49.540;11.932;2023-06-24T08:54:27;19.83;;;18.60;;
11037;SDS011;5572;49.540;11.932;2023-06-24T08:56:54;19.80;;;18.50;;
11037;SDS011;5572;49.540;11.932;2023-06-24T08:59:21;20.80;;;19.43;;
11037;SDS011;5572;49.540;11.932;2023-06-24T09:01:47;24.67;;;22.90;;
11037;SDS011;5572;49.540;11.932;2023-06-24T09:04:15;22.20;;;20.67;;
11037;SDS011;5572;49.540;11.932;2023-06-24T09:06:42;20.20;;;18.83;;
11037;SDS011;5572;49.540;11.932;2023-06-24T09:09:16;20.77;;;19.37;;
11037;SDS011;5572;49.540;11.932;2023-06-24T09:11:50;23.20;;;21.63;;
11037;SDS011;5572;49.540;11.932;2023-06-24T09:14:18;22.13;;;20.67;;
11037;SDS011;5572;49.540;11.932;2023-06-24T09:16:50;22.37;;;20.73;;
11037;SDS011;5572;49.540;11.932;2023-06-24T09:19:19;22.13;;;20.70;;
11037;SDS011;5572;49.540;11.932;2023-06-24T09:21:46;23.20;;;21.63;;
11037;SDS011;5572;49.540;11.932;2023-06-24T09:24:13;21.40;;;20.00;;
11037;SDS011;5572;49.540;11.932;2023-06-24T09:26:41;25.63;;;23.87;;
11037;SDS011;5572;49.540;11.932;2023-06-24T09:29:10;23.33;;;21.77;;
11037;SDS011;5572;49.540;11.932;2023-06-24T09:31:45;24.57;;;22.67;;
11037;SDS011;5572;49.540;11.932;2023-06-24T09:34:12;23.30;;;21.73;;
11037;SDS011;5572;49.540;11.932;2023-06-24T09:36:41;22.87;;;21.37;;
11037;SDS011;5572;49.540;11.932;2023-06-24T09:39:09;23.07;;;21.53;;
11037;SDS011;5572;49.540;11.932;2023-06-24T09:41:36;24.23;;;22.63;;
11037;SDS011;5572;49.540;11.932;2023-06-24T09:44:07;22.73;;;21.23;;
11037;SDS011;5572;49.540;11.932;2023-06-24T09:46:36;23.00;;;21.43;;
11037;SDS011;5572;49.540;11.932;2023-06-24T09:49:03;22.97;;;21.30;;
11037;SDS011;5572;49.540;11.932;2023-06-24T09:51:31;21.63;;;20.23;;
11037;SDS011;5572;49.540;11.932;2023-06-24T09:54:01;21.40;;;19.97;;
11037;SDS011;5572;49.540;11.932;2023-06-24T09:56:30;22.93;;;21.30;;
11037;SDS011;5572;49.540;11.932;2023-06-24T09:58:56;25.00;;;23.30;;
11037;SDS011;5572;49.540;11.932;2023-06-24T10:01:24;23.20;;;21.67;;
11037;SDS011;5572;49.540;11.932;2023-06-24T10:03:52;21.73;;;20.33;;
11037;SDS011;5572;49.540;11.932;2023-06-24T10:06:19;22.40;;;20.83;;
11037;SDS011;5572;49.540;11.932;2023-06-24T10:08:45;22.43;;;20.87;;
11037;SDS011;5572;49.540;11.932;2023-06-24T10:11:12;21.73;;;20.27;;
11037;SDS011;5572;49.540;11.932;2023-06-24T10:13:38;23.67;;;21.97;;
11037;SDS011;5572;49.540;11.932;2023-06-24T10:16:05;22.57;;;21.03;;
11037;SDS011;5572;49.540;11.932;2023-06-24T10:18:32;25.67;;;23.73;;
11037;SDS011;5572;49.540;11.932;2023-06-24T10:21:00;22.73;;;21.10;;
11037;SDS011;5572;49.540;11.932;2023-06-24T10:23:29;26.93;;;24.17;;
11037;SDS011;5572;49.540;11.932;2023-06-24T10:25:57;21.80;;;20.40;;
11037;SDS011;5572;49.540;11.932;2023-06-24T10:28:23;25.27;;;23.50;;
11037;SDS011;5572;49.540;11.932;2023-06-24T10:30:54;21.63;;;20.23;;
11037;SDS011;5572;49.540;11.932;2023-06-24T10:33:21;22.63;;;21.07;;
11037;SDS011;5572;49.540;11.932;2023-06-24T10:35:49;22.90;;;21.23;;
11037;SDS011;5572;49.540;11.932;2023-06-24T10:38:19;24.00;;;22.33;;
11037;SDS011;5572;49.540;11.932;2023-06-24T10:40:45;22.53;;;20.97;;
11037;SDS011;5572;49.540;11.932;2023-06-24T10:43:27;23.33;;;21.70;;
11037;SDS011;5572;49.540;11.932;2023-06-24T10:45:55;22.40;;;20.93;;
11037;SDS011;5572;49.540;11.932;2023-06-24T10:48:23;26.77;;;24.90;;
11037;SDS011;5572;49.540;11.932;2023-06-24T10:50:50;23.43;;;21.83;;
11037;SDS011;5572;49.540;11.932;2023-06-24T10:53:18;21.40;;;19.97;;
11037;SDS011;5572;49.540;11.932;2023-06-24T10:55:47;24.53;;;22.80;;
11037;SDS011;5572;49.540;11.932;2023-06-24T10:58:14;23.97;;;22.37;;
11037;SDS011;5572;49.540;11.932;2023-06-24T11:00:41;24.03;;;22.43;;
11037;SDS011;5572;49.540;11.932;2023-06-24T11:03:11;23.77;;;22.13;;
11037;SDS011;5572;49.540;11.932;2023-06-24T11:05:39;22.77;;;21.20;;
11037;SDS011;5572;49.540;11.932;2023-06-24T11:08:06;21.60;;;20.17;;
11037;SDS011;5572;49.540;11.932;2023-06-24T11:10:34;22.33;;;20.83;;
11037;SDS011;5572;49.540;11.932;2023-06-24T11:13:08;22.90;;;21.40;;
11037;SDS011;5572;49.540;11.932;2023-06-24T11:15:35;22.77;;;21.23;;
11037;SDS011;5572;49.540;11.932;2023-06-24T11:18:02;23.50;;;22.00;;
11037;SDS011;5572;49.540;11.932;2023-06-24T11:20:29;24.87;;;23.20;;
11037;SDS011;5572;49.540;11.932;2023-06-24T11:22:55;26.13;;;24.40;;
11037;SDS011;5572;49.540;11.932;2023-06-24T11:25:22;23.03;;;21.47;;
11037;SDS011;5572;49.540;11.932;2023-06-24T11:27:51;26.30;;;24.50;;
11037;SDS011;5572;49.540;11.932;2023-06-24T11:30:18;25.87;;;24.20;;
11037;SDS011;5572;49.540;11.932;2023-06-24T11:32:45;24.63;;;23.10;;
11037;SDS011;5572;49.540;11.932;2023-06-24T11:35:12;26.07;;;24.40;;
11037;SDS011;5572;49.540;11.932;2023-06-24T11:37:41;24.90;;;23.13;;
11037;SDS011;5572;49.540;11.932;2023-06-24T11:40:08;24.37;;;22.47;;
11037;SDS011;5572;49.540;11.932;2023-06-24T11:42:36;21.67;;;20.23;;
11037;SDS011;5572;49.540;11.932;2023-06-24T11:45:06;21.63;;;20.17;;
11037;SDS011;5572;49.540;11.932;2023-06-24T11:47:34;22.67;;;21.13;;
11037;SDS011;5572;49.540;11.932;2023-06-24T11:50:02;24.83;;;23.20;;
11037;SDS011;5572;49.540;11.932;2023-06-24T11:52:33;23.03;;;21.50;;
11037;SDS011;5572;49.540;11.932;2023-06-24T11:55:10;25.73;;;23.93;;
11037;SDS011;5572;49.540;11.932;2023-06-24T11:57:47;25.80;;;23.90;;
11037;SDS011;5572;49.540;11.932;2023-06-24T12:00:20;23.87;;;22.27;;
11037;SDS011;5572;49.540;11.932;2023-06-24T12:02:49;23.53;;;21.93;;
11037;SDS011;5572;49.540;11.932;2023-06-24T12:05:19;23.90;;;22.30;;
11037;SDS011;5572;49.540;11.932;2023-06-24T12:07:51;24.27;;;22.73;;
11037;SDS011;5572;49.540;11.932;2023-06-24T12:10:18;22.57;;;21.07;;
11037;SDS011;5572;49.540;11.932;2023-06-24T12:12:44;25.33;;;23.63;;
11037;SDS011;5572;49.540;11.932;2023-06-24T12:15:11;23.13;;;21.67;;
11037;SDS011;5572;49.540;11.932;2023-06-24T12:17:38;25.43;;;23.80;;
11037;SDS011;5572;49.540;11.932;2023-06-24T12:20:05;23.20;;;21.70;;
11037;SDS011;5572;49.540;11.932;2023-06-24T12:22:33;23.40;;;21.87;;
11037;SDS011;5572;49.540;11.932;2023-06-24T12:24:59;24.07;;;22.30;;
11037;SDS011;5572;49.540;11.932;2023-06-24T12:27:26;21.93;;;20.43;;
11037;SDS011;5572;49.540;11.932;2023-06-24T12:29:53;24.07;;;22.47;;
11037;SDS011;5572;49.540;11.932;2023-06-24T12:32:19;26.13;;;24.33;;
11037;SDS011;5572;49.540;11.932;2023-06-24T12:34:47;21.53;;;20.17;;
11037;SDS011;5572;49.540;11.932;2023-06-24T12:37:13;23.87;;;22.33;;
11037;SDS011;5572;49.540;11.932;2023-06-24T12:39:40;23.13;;;21.70;;
11037;SDS011;5572;49.540;11.932;2023-06-24T12:42:07;22.43;;;21.03;;
11037;SDS011;5572;49.540;11.932;2023-06-24T12:44:33;24.10;;;22.50;;
11037;SDS011;5572;49.540;11.932;2023-06-24T12:47:00;23.00;;;21.43;;
11037;SDS011;5572;49.540;11.932;2023-06-24T12:49:27;23.23;;;21.67;;
11037;SDS011;5572;49.540;11.932;2023-06-24T12:51:55;22.93;;;21.33;;
11037;SDS011;5572;49.540;11.932;2023-06-24T12:54:22;23.13;;;21.60;;
11037;SDS011;5572;49.540;11.932;2023-06-24T12:56:48;24.40;;;22.80;;
11037;SDS011;5572;49.540;11.932;2023-06-24T12:59:15;24.70;;;23.13;;
11037;SDS011;5572;49.540;11.932;2023-06-24T13:01:41;23.33;;;21.73;;
11037;SDS011;5572;49.540;11.932;2023-06-24T13:04:09;23.23;;;21.73;;
11037;SDS011;5572;49.540;11.932;2023-06-24T13:06:36;23.40;;;21.90;;
11037;SDS011;5572;49.540;11.932;2023-06-24T13:09:04;25.03;;;23.33;;
11037;SDS011;5572;49.540;11.932;2023-06-24T13:11:30;25.10;;;23.47;;
11037;SDS011;5572;49.540;11.932;2023-06-24T13:13:57;24.37;;;22.77;;
11037;SDS011;5572;49.540;11.932;2023-06-24T13:16:23;24.60;;;23.00;;
11037;SDS011;5572;49.540;11.932;2023-06-24T13:18:50;23.73;;;22.20;;
11037;SDS011;5572;49.540;11.932;2023-06-24T13:21:16;23.33;;;21.87;;
11037;SDS011;5572;49.540;11.932;2023-06-24T13:23:43;25.07;;;23.37;;
11037;SDS011;5572;49.540;11.932;2023-06-24T13:26:12;22.27;;;20.93;;
11037;SDS011;5572;49.540;11.932;2023-06-24T13:28:39;23.90;;;22.33;;
11037;SDS011;5572;49.540;11.932;2023-06-24T13:31:05;23.17;;;21.77;;
11037;SDS011;5572;49.540;11.932;2023-06-24T13:33:32;24.47;;;22.87;;
11037;SDS011;5572;49.540;11.932;2023-06-24T13:35:58;25.60;;;23.93;;
11037;SDS011;5572;49.540;11.932;2023-06-24T13:38:25;24.70;;;23.03;;
11037;SDS011;5572;49.540;11.932;2023-06-24T13:40:51;26.10;;;24.40;;
11037;SDS011;5572;49.540;11.932;2023-06-24T13:43:19;23.40;;;21.90;;
11037;SDS011;5572;49.540;11.932;2023-06-24T13:45:46;22.77;;;21.23;;
11037;SDS011;5572;49.540;11.932;2023-06-24T13:48:12;24.57;;;22.87;;
11037;SDS011;5572;49.540;11.932;2023-06-24T13:50:39;28.90;;;24.10;;
11037;SDS011;5572;49.540;11.932;2023-06-24T13:53:05;22.23;;;20.63;;
11037;SDS011;5572;49.540;11.932;2023-06-24T13:55:32;21.57;;;20.17;;
11037;SDS011;5572;49.540;11.932;2023-06-24T13:57:58;24.47;;;22.77;;
11037;SDS011;5572;49.540;11.932;2023-06-24T14:00:26;23.50;;;22.00;;
11037;SDS011;5572;49.540;11.932;2023-06-24T14:02:53;23.37;;;21.90;;
11037;SDS011;5572;49.540;11.932;2023-06-24T14:05:20;21.83;;;20.47;;
11037;SDS011;5572;49.540;11.932;2023-06-24T14:07:47;23.33;;;21.73;;
11037;SDS011;5572;49.540;11.932;2023-06-24T14:10:13;23.47;;;21.93;;
11037;SDS011;5572;49.540;11.932;2023-06-24T14:12:40;23.93;;;22.43;;
11037;SDS011;5572;49.540;11.932;2023-06-24T14:15:08;24.20;;;22.60;;
11037;SDS011;5572;49.540;11.932;2023-06-24T14:17:36;22.20;;;20.77;;
11037;SDS011;5572;49.540;11.932;2023-06-24T14:20:03;25.43;;;23.80;;
11037;SDS011;5572;49.540;11.932;2023-06-24T14:22:30;23.27;;;21.80;;
11037;SDS011;5572;49.540;11.932;2023-06-24T14:24:56;24.00;;;22.53;;